Flight Track Log - Related Links

Times and Time Zones

All times are in EDT time to prevent confusion due to time zone crossing. See the RPA4911 flight status page for this flight to view local times or setup timezone preferences in your user account.

Time Position Orientation Groundspeed Altitude Reporting Facility
EDT Latitude Longitude Course Direction KTS MPH feet Rate Location/Type
Thu 06:06:57 AM 42.7675 -73.8086 200° South 172 198 1,400  Level Boston Center
Thu 06:07:35 AM 42.7917 -73.8283 329° Northwest 172 198 3,300 2,909 Climbing Boston Center
Thu 06:08:36 AM 42.7797 -73.8828 253° West 189 217 6,200 2,934 Climbing Boston Center
Thu 06:09:00 AM 42.4715 -73.8529 196° South  Level Estimated
Thu 06:09:52 AM 42.7069 -73.9006 190° South 210 242 10,000  Level Boston Center
Thu 06:10:00 AM 42.3790 -73.8697 197° South  Level Estimated
Thu 06:10:53 AM 42.6456 -73.9172 191° South 209 241 12,500  Level Boston Center
Thu 06:11:00 AM 42.3042 -73.9453 217° Southwest  Level FlightAware Approximate
Thu 06:11:56 AM 42.5808 -73.9367 192° South 234 269 14,000  Level Boston Center
Thu 06:12:00 AM 42.2113 -73.9585 200° South  Level Estimated
Thu 06:12:55 AM 42.4978 -73.9603 192° South 306 352 14,000  Level Boston Center
Thu 06:13:57 AM 42.4086 -73.9850 192° South 326 375 14,000  Level Boston Center
Thu 06:14:58 AM 42.3186 -74.0103 192° South 331 381 14,000  Level Boston Center
Thu 06:15:59 AM 42.2242 -74.0378 192° South 324 373 14,000 50 Level Boston Center
Thu 06:16:57 AM 42.1433 -74.0739 198° South 315 362 14,100 49 Climbing Boston Center
Thu 06:18:01 AM 42.0625 -74.1089 198° South 307 353 14,100 -49 Level Boston Center
Thu 06:19:00 AM 41.9761 -74.1453 197° South 302 348 14,000 -50 Descending Boston Center
Thu 06:20:01 AM 41.8964 -74.1806 198° South 302 348 14,000  Level Boston Center
Thu 06:21:04 AM 41.8172 -74.2150 198° South 299 344 14,000 -683 Level Boston Center
Thu 06:22:04 AM 41.7356 -74.2500 198° South 309 356 12,600 -1,438 Descending Boston Center
Thu 06:23:05 AM 41.6553 -74.2853 198° South 304 350 11,100 -1,450 Descending Boston Center
Thu 06:24:04 AM 41.5781 -74.3189 198° South 272 313 9,700 -1,361 Descending Boston Center
Thu 06:25:04 AM 41.5081 -74.3475 197° South 266 306 8,400 -1,210 Descending Boston Center
Thu 06:26:08 AM 41.4403 -74.3792 199° South 260 299 7,200 -672 Descending Boston Center
Thu 06:27:09 AM 41.3753 -74.4053 197° South 247 284 7,000 -99 Descending Boston Center
Thu 06:28:09 AM 41.3003 -74.3914 172° South 272 313 7,000 -545 Level Boston Center
Thu 06:29:21 AM 41.2167 -74.3333 152° Southeast 283 326 5,800 -864 Descending New York TRACON
Thu 06:30:21 AM 41.1500 -74.2833 151° Southeast 284 327 5,100 -474 Descending New York TRACON
Thu 06:31:15 AM 41.0833 -74.2333 151° Southeast 283 326 4,900 -632 Descending New York TRACON
Thu 06:32:15 AM 41.0167 -74.1833 150° Southeast 276 318 3,900 -947 Descending New York TRACON
Thu 06:33:09 AM 40.9667 -74.1500 153° Southeast 279 321 3,100 -421 Descending New York TRACON
Thu 06:34:09 AM 40.9000 -74.1000 150° Southeast 238 274 3,100  Level New York TRACON
Thu 06:35:15 AM 40.8333 -74.0667 159° South 216 249 3,100 -476 Level New York TRACON
Thu 06:36:15 AM 40.7833 -74.1000 207° Southwest 196 226 2,100 -1,000 Descending New York TRACON
Thu 06:37:09 AM 40.7500 -74.1333 217° Southwest 173 199 1,200 -889 Descending New York TRACON
Thu 06:38:03 AM 40.7167 -74.1500 201° Southwest 125 144 500 -778 Descending New York TRACON

Login

Don't have an account? Register now (free) for customized features, flight alerts, and more!